sensor_id;sensor_type;location;lat;lon;timestamp;temperature;humidity
13529;DHT22;4419;50.882;4.718;2022-08-21T00:00:11;18.30;99.90
13529;DHT22;4419;50.882;4.718;2022-08-21T00:02:37;18.30;99.90
13529;DHT22;4419;50.882;4.718;2022-08-21T00:05:03;18.30;99.90
13529;DHT22;4419;50.882;4.718;2022-08-21T00:07:29;18.20;99.90
13529;DHT22;4419;50.882;4.718;2022-08-21T00:09:55;18.20;99.90
13529;DHT22;4419;50.882;4.718;2022-08-21T00:12:20;18.20;99.90
13529;DHT22;4419;50.882;4.718;2022-08-21T00:14:49;18.20;99.90
13529;DHT22;4419;50.882;4.718;2022-08-21T00:17:18;18.10;99.90
13529;DHT22;4419;50.882;4.718;2022-08-21T00:19:43;18.10;99.90
13529;DHT22;4419;50.882;4.718;2022-08-21T00:22:09;18.00;99.90
13529;DHT22;4419;50.882;4.718;2022-08-21T00:24:35;18.00;99.90
13529;DHT22;4419;50.882;4.718;2022-08-21T00:27:01;17.90;99.90
13529;DHT22;4419;50.882;4.718;2022-08-21T00:29:27;17.90;99.90
13529;DHT22;4419;50.882;4.718;2022-08-21T00:31:52;17.90;99.90
13529;DHT22;4419;50.882;4.718;2022-08-21T00:34:18;18.00;99.90
13529;DHT22;4419;50.882;4.718;2022-08-21T00:36:44;18.00;99.90
13529;DHT22;4419;50.882;4.718;2022-08-21T00:39:10;17.90;99.90
13529;DHT22;4419;50.882;4.718;2022-08-21T00:41:37;17.90;99.90
13529;DHT22;4419;50.882;4.718;2022-08-21T00:44:03;17.90;99.90
13529;DHT22;4419;50.882;4.718;2022-08-21T00:46:29;17.80;99.90
13529;DHT22;4419;50.882;4.718;2022-08-21T00:48:55;17.70;99.90
13529;DHT22;4419;50.882;4.718;2022-08-21T00:51:24;17.80;99.90
13529;DHT22;4419;50.882;4.718;2022-08-21T00:53:53;17.80;99.90
13529;DHT22;4419;50.882;4.718;2022-08-21T00:56:19;17.80;99.90
13529;DHT22;4419;50.882;4.718;2022-08-21T00:58:46;17.80;99.90
13529;DHT22;4419;50.882;4.718;2022-08-21T01:01:13;17.70;99.90
13529;DHT22;4419;50.882;4.718;2022-08-21T01:03:39;17.70;99.90
13529;DHT22;4419;50.882;4.718;2022-08-21T01:06:05;17.60;99.90
13529;DHT22;4419;50.882;4.718;2022-08-21T01:08:31;17.50;99.90
13529;DHT22;4419;50.882;4.718;2022-08-21T01:10:57;17.50;99.90
13529;DHT22;4419;50.882;4.718;2022-08-21T01:13:25;17.40;99.90
13529;DHT22;4419;50.882;4.718;2022-08-21T01:15:51;17.40;99.90
13529;DHT22;4419;50.882;4.718;2022-08-21T01:18:17;17.30;99.90
13529;DHT22;4419;50.882;4.718;2022-08-21T01:23:11;17.40;99.90
13529;DHT22;4419;50.882;4.718;2022-08-21T01:25:36;17.30;99.90
13529;DHT22;4419;50.882;4.718;2022-08-21T01:28:04;17.40;99.90
13529;DHT22;4419;50.882;4.718;2022-08-21T01:30:31;17.50;99.90
13529;DHT22;4419;50.882;4.718;2022-08-21T01:32:59;17.40;99.90
13529;DHT22;4419;50.882;4.718;2022-08-21T01:35:25;17.40;99.90
13529;DHT22;4419;50.882;4.718;2022-08-21T01:37:51;17.40;99.90
13529;DHT22;4419;50.882;4.718;2022-08-21T01:40:17;17.30;99.90
13529;DHT22;4419;50.882;4.718;2022-08-21T01:42:43;17.30;99.90
13529;DHT22;4419;50.882;4.718;2022-08-21T01:45:10;17.30;99.90
13529;DHT22;4419;50.882;4.718;2022-08-21T01:47:36;17.40;99.90
13529;DHT22;4419;50.882;4.718;2022-08-21T01:50:03;17.30;99.90
13529;DHT22;4419;50.882;4.718;2022-08-21T01:52:29;17.40;99.90
13529;DHT22;4419;50.882;4.718;2022-08-21T01:54:55;17.40;99.90
13529;DHT22;4419;50.882;4.718;2022-08-21T01:57:21;17.30;99.90
13529;DHT22;4419;50.882;4.718;2022-08-21T01:59:47;17.30;99.90
13529;DHT22;4419;50.882;4.718;2022-08-21T02:02:12;17.30;99.90
13529;DHT22;4419;50.882;4.718;2022-08-21T02:04:38;17.20;99.90
13529;DHT22;4419;50.882;4.718;2022-08-21T02:07:03;17.30;99.90
13529;DHT22;4419;50.882;4.718;2022-08-21T02:09:29;17.20;99.90
13529;DHT22;4419;50.882;4.718;2022-08-21T02:11:55;17.10;99.90
13529;DHT22;4419;50.882;4.718;2022-08-21T02:14:21;17.10;99.90
13529;DHT22;4419;50.882;4.718;2022-08-21T02:16:46;17.00;99.90
13529;DHT22;4419;50.882;4.718;2022-08-21T02:19:12;16.90;99.90
13529;DHT22;4419;50.882;4.718;2022-08-21T02:21:38;16.80;99.90
13529;DHT22;4419;50.882;4.718;2022-08-21T02:24:04;16.80;99.90
13529;DHT22;4419;50.882;4.718;2022-08-21T02:26:30;16.70;99.90
13529;DHT22;4419;50.882;4.718;2022-08-21T02:28:55;16.70;99.90
13529;DHT22;4419;50.882;4.718;2022-08-21T02:31:21;16.70;99.90
13529;DHT22;4419;50.882;4.718;2022-08-21T02:33:47;16.80;99.90
13529;DHT22;4419;50.882;4.718;2022-08-21T02:36:12;16.70;99.90
13529;DHT22;4419;50.882;4.718;2022-08-21T02:38:39;16.70;99.90
13529;DHT22;4419;50.882;4.718;2022-08-21T02:41:06;16.60;99.90
13529;DHT22;4419;50.882;4.718;2022-08-21T02:43:32;16.60;99.90
13529;DHT22;4419;50.882;4.718;2022-08-21T02:45:58;16.60;99.90
13529;DHT22;4419;50.882;4.718;2022-08-21T02:48:25;16.50;99.90
13529;DHT22;4419;50.882;4.718;2022-08-21T02:50:56;16.40;99.90
13529;DHT22;4419;50.882;4.718;2022-08-21T02:53:21;16.40;99.90
13529;DHT22;4419;50.882;4.718;2022-08-21T02:55:48;16.50;99.90
13529;DHT22;4419;50.882;4.718;2022-08-21T02:58:15;16.40;99.90
13529;DHT22;4419;50.882;4.718;2022-08-21T03:00:41;16.40;99.90
13529;DHT22;4419;50.882;4.718;2022-08-21T03:03:07;16.40;99.90
13529;DHT22;4419;50.882;4.718;2022-08-21T03:05:33;16.40;99.90
13529;DHT22;4419;50.882;4.718;2022-08-21T03:08:00;16.30;99.90
13529;DHT22;4419;50.882;4.718;2022-08-21T03:10:26;16.30;99.90
13529;DHT22;4419;50.882;4.718;2022-08-21T03:12:51;16.30;99.90
13529;DHT22;4419;50.882;4.718;2022-08-21T03:15:18;16.30;99.90
13529;DHT22;4419;50.882;4.718;2022-08-21T03:17:44;16.30;99.90
13529;DHT22;4419;50.882;4.718;2022-08-21T03:20:13;16.30;99.90
13529;DHT22;4419;50.882;4.718;2022-08-21T03:22:39;16.20;99.90
13529;DHT22;4419;50.882;4.718;2022-08-21T03:25:05;16.20;99.90
13529;DHT22;4419;50.882;4.718;2022-08-21T03:27:31;16.30;99.90
13529;DHT22;4419;50.882;4.718;2022-08-21T03:29:57;16.30;99.90
13529;DHT22;4419;50.882;4.718;2022-08-21T03:32:22;16.30;99.90
13529;DHT22;4419;50.882;4.718;2022-08-21T03:34:48;16.20;99.90
13529;DHT22;4419;50.882;4.718;2022-08-21T03:37:14;16.20;99.90
13529;DHT22;4419;50.882;4.718;2022-08-21T03:39:40;16.10;99.90
13529;DHT22;4419;50.882;4.718;2022-08-21T03:42:07;16.20;99.90
13529;DHT22;4419;50.882;4.718;2022-08-21T03:44:33;16.30;99.90
13529;DHT22;4419;50.882;4.718;2022-08-21T03:47:00;16.20;99.90
13529;DHT22;4419;50.882;4.718;2022-08-21T03:49:25;16.20;99.90
13529;DHT22;4419;50.882;4.718;2022-08-21T03:51:51;16.30;99.90
13529;DHT22;4419;50.882;4.718;2022-08-21T03:54:17;16.20;99.90
13529;DHT22;4419;50.882;4.718;2022-08-21T03:56:43;16.00;99.90
13529;DHT22;4419;50.882;4.718;2022-08-21T03:59:08;16.20;99.90
13529;DHT22;4419;50.882;4.718;2022-08-21T04:01:34;16.10;99.90
13529;DHT22;4419;50.882;4.718;2022-08-21T04:04:00;16.10;99.90
13529;DHT22;4419;50.882;4.718;2022-08-21T04:06:25;15.90;99.90
13529;DHT22;4419;50.882;4.718;2022-08-21T04:08:52;16.00;99.90
13529;DHT22;4419;50.882;4.718;2022-08-21T04:11:18;16.00;99.90
13529;DHT22;4419;50.882;4.718;2022-08-21T04:13:43;16.00;99.90
13529;DHT22;4419;50.882;4.718;2022-08-21T04:16:09;15.90;99.90
13529;DHT22;4419;50.882;4.718;2022-08-21T04:18:35;16.00;99.90
13529;DHT22;4419;50.882;4.718;2022-08-21T04:21:00;15.90;99.90
13529;DHT22;4419;50.882;4.718;2022-08-21T04:23:26;16.00;99.90
13529;DHT22;4419;50.882;4.718;2022-08-21T04:25:53;16.00;99.90
13529;DHT22;4419;50.882;4.718;2022-08-21T04:28:19;16.00;99.90
13529;DHT22;4419;50.882;4.718;2022-08-21T04:30:45;15.90;99.90
13529;DHT22;4419;50.882;4.718;2022-08-21T04:33:11;15.90;99.90
13529;DHT22;4419;50.882;4.718;2022-08-21T04:35:36;15.90;99.90
13529;DHT22;4419;50.882;4.718;2022-08-21T04:38:02;15.90;99.90
13529;DHT22;4419;50.882;4.718;2022-08-21T04:40:28;15.90;99.90
13529;DHT22;4419;50.882;4.718;2022-08-21T04:42:55;15.90;99.90
13529;DHT22;4419;50.882;4.718;2022-08-21T04:45:25;15.80;99.90
13529;DHT22;4419;50.882;4.718;2022-08-21T04:47:52;15.70;99.90
13529;DHT22;4419;50.882;4.718;2022-08-21T04:50:18;15.70;99.90
13529;DHT22;4419;50.882;4.718;2022-08-21T04:52:44;15.60;99.90
13529;DHT22;4419;50.882;4.718;2022-08-21T04:55:10;15.60;99.90
13529;DHT22;4419;50.882;4.718;2022-08-21T04:57:36;15.60;99.90
13529;DHT22;4419;50.882;4.718;2022-08-21T05:00:02;15.60;99.90
13529;DHT22;4419;50.882;4.718;2022-08-21T05:02:29;15.50;99.90
13529;DHT22;4419;50.882;4.718;2022-08-21T05:04:58;15.50;99.90
13529;DHT22;4419;50.882;4.718;2022-08-21T05:07:25;15.50;99.90
13529;DHT22;4419;50.882;4.718;2022-08-21T05:09:51;15.50;99.90
13529;DHT22;4419;50.882;4.718;2022-08-21T05:12:17;15.50;99.90
13529;DHT22;4419;50.882;4.718;2022-08-21T05:14:44;15.40;99.90
13529;DHT22;4419;50.882;4.718;2022-08-21T05:17:09;15.50;99.90
13529;DHT22;4419;50.882;4.718;2022-08-21T05:19:35;15.40;99.90
13529;DHT22;4419;50.882;4.718;2022-08-21T05:22:01;15.40;99.90
13529;DHT22;4419;50.882;4.718;2022-08-21T05:24:27;15.50;99.90
13529;DHT22;4419;50.882;4.718;2022-08-21T05:26:52;15.50;99.90
13529;DHT22;4419;50.882;4.718;2022-08-21T05:29:18;15.50;99.90
13529;DHT22;4419;50.882;4.718;2022-08-21T05:31:44;15.60;99.90
13529;DHT22;4419;50.882;4.718;2022-08-21T05:34:10;15.70;99.90
13529;DHT22;4419;50.882;4.718;2022-08-21T05:36:36;15.70;99.90
13529;DHT22;4419;50.882;4.718;2022-08-21T05:39:02;15.80;99.90
13529;DHT22;4419;50.882;4.718;2022-08-21T05:41:28;15.90;99.90
13529;DHT22;4419;50.882;4.718;2022-08-21T05:43:53;15.90;99.90
13529;DHT22;4419;50.882;4.718;2022-08-21T05:46:19;15.90;99.90
13529;DHT22;4419;50.882;4.718;2022-08-21T05:48:44;15.90;99.90
13529;DHT22;4419;50.882;4.718;2022-08-21T05:51:12;16.00;99.90
13529;DHT22;4419;50.882;4.718;2022-08-21T05:53:37;16.10;99.90
13529;DHT22;4419;50.882;4.718;2022-08-21T05:56:03;16.20;99.90
13529;DHT22;4419;50.882;4.718;2022-08-21T05:58:30;16.20;99.90
13529;DHT22;4419;50.882;4.718;2022-08-21T06:00:57;16.10;99.90
13529;DHT22;4419;50.882;4.718;2022-08-21T06:03:25;16.20;99.90
13529;DHT22;4419;50.882;4.718;2022-08-21T06:05:51;16.20;99.90
13529;DHT22;4419;50.882;4.718;2022-08-21T06:08:18;16.30;99.90
13529;DHT22;4419;50.882;4.718;2022-08-21T06:10:44;16.40;99.90
13529;DHT22;4419;50.882;4.718;2022-08-21T06:13:10;16.40;99.90
13529;DHT22;4419;50.882;4.718;2022-08-21T06:15:36;16.50;99.90
13529;DHT22;4419;50.882;4.718;2022-08-21T06:18:01;16.40;99.90
13529;DHT22;4419;50.882;4.718;2022-08-21T06:20:27;16.60;99.90
13529;DHT22;4419;50.882;4.718;2022-08-21T06:22:53;16.60;99.90
13529;DHT22;4419;50.882;4.718;2022-08-21T06:25:19;16.60;99.90
13529;DHT22;4419;50.882;4.718;2022-08-21T06:27:44;16.70;99.90
13529;DHT22;4419;50.882;4.718;2022-08-21T06:30:10;16.70;99.90
13529;DHT22;4419;50.882;4.718;2022-08-21T06:32:36;16.80;99.90
13529;DHT22;4419;50.882;4.718;2022-08-21T06:35:02;16.90;99.90
13529;DHT22;4419;50.882;4.718;2022-08-21T06:37:28;17.00;99.90
13529;DHT22;4419;50.882;4.718;2022-08-21T06:39:54;17.00;99.90
13529;DHT22;4419;50.882;4.718;2022-08-21T06:42:20;17.10;99.90
13529;DHT22;4419;50.882;4.718;2022-08-21T06:44:45;17.30;99.90
13529;DHT22;4419;50.882;4.718;2022-08-21T06:47:11;17.30;99.90
13529;DHT22;4419;50.882;4.718;2022-08-21T06:49:37;17.30;99.90
13529;DHT22;4419;50.882;4.718;2022-08-21T06:52:03;17.30;99.90
13529;DHT22;4419;50.882;4.718;2022-08-21T06:54:28;17.40;99.90
13529;DHT22;4419;50.882;4.718;2022-08-21T06:56:55;17.40;99.90
13529;DHT22;4419;50.882;4.718;2022-08-21T06:59:21;17.40;99.90
13529;DHT22;4419;50.882;4.718;2022-08-21T07:01:46;17.50;99.90
13529;DHT22;4419;50.882;4.718;2022-08-21T07:04:13;17.50;99.90
13529;DHT22;4419;50.882;4.718;2022-08-21T07:06:38;17.60;99.90
13529;DHT22;4419;50.882;4.718;2022-08-21T07:09:05;17.60;99.90
13529;DHT22;4419;50.882;4.718;2022-08-21T07:11:30;17.70;99.90
13529;DHT22;4419;50.882;4.718;2022-08-21T07:13:56;17.70;99.90
13529;DHT22;4419;50.882;4.718;2022-08-21T07:16:22;17.80;99.90
13529;DHT22;4419;50.882;4.718;2022-08-21T07:18:48;17.90;99.90
13529;DHT22;4419;50.882;4.718;2022-08-21T07:21:14;18.00;99.90
13529;DHT22;4419;50.882;4.718;2022-08-21T07:23:42;17.90;99.90
13529;DHT22;4419;50.882;4.718;2022-08-21T07:26:10;18.00;99.90
13529;DHT22;4419;50.882;4.718;2022-08-21T07:28:35;18.10;99.90
13529;DHT22;4419;50.882;4.718;2022-08-21T07:31:01;18.10;99.90
13529;DHT22;4419;50.882;4.718;2022-08-21T07:33:28;18.20;99.90
13529;DHT22;4419;50.882;4.718;2022-08-21T07:35:54;18.30;99.90
13529;DHT22;4419;50.882;4.718;2022-08-21T07:38:20;18.40;99.90
13529;DHT22;4419;50.882;4.718;2022-08-21T07:40:46;18.50;99.90
13529;DHT22;4419;50.882;4.718;2022-08-21T07:43:12;18.60;99.90
13529;DHT22;4419;50.882;4.718;2022-08-21T07:45:37;18.80;99.90
13529;DHT22;4419;50.882;4.718;2022-08-21T07:48:03;18.90;99.90
13529;DHT22;4419;50.882;4.718;2022-08-21T07:50:29;18.90;99.90
13529;DHT22;4419;50.882;4.718;2022-08-21T07:52:55;19.00;99.90
13529;DHT22;4419;50.882;4.718;2022-08-21T07:55:21;19.10;99.90
13529;DHT22;4419;50.882;4.718;2022-08-21T07:57:47;19.10;99.90
13529;DHT22;4419;50.882;4.718;2022-08-21T08:00:14;19.10;99.90
13529;DHT22;4419;50.882;4.718;2022-08-21T08:02:40;19.20;99.90
13529;DHT22;4419;50.882;4.718;2022-08-21T08:05:07;19.30;99.90
13529;DHT22;4419;50.882;4.718;2022-08-21T08:07:33;19.40;99.90
13529;DHT22;4419;50.882;4.718;2022-08-21T08:10:00;19.40;99.90
13529;DHT22;4419;50.882;4.718;2022-08-21T08:12:25;19.50;99.90
13529;DHT22;4419;50.882;4.718;2022-08-21T08:14:58;19.60;99.90
13529;DHT22;4419;50.882;4.718;2022-08-21T08:17:24;19.70;99.90
13529;DHT22;4419;50.882;4.718;2022-08-21T08:19:49;19.80;99.90
13529;DHT22;4419;50.882;4.718;2022-08-21T08:22:16;19.90;99.90
13529;DHT22;4419;50.882;4.718;2022-08-21T08:24:42;20.00;99.90
13529;DHT22;4419;50.882;4.718;2022-08-21T08:27:08;20.10;99.90
13529;DHT22;4419;50.882;4.718;2022-08-21T08:29:33;20.10;99.90
13529;DHT22;4419;50.882;4.718;2022-08-21T08:31:59;20.20;99.90
13529;DHT22;4419;50.882;4.718;2022-08-21T08:34:24;20.20;99.90
13529;DHT22;4419;50.882;4.718;2022-08-21T08:36:50;20.30;99.90
13529;DHT22;4419;50.882;4.718;2022-08-21T08:39:16;20.30;99.90
13529;DHT22;4419;50.882;4.718;2022-08-21T08:41:42;20.40;99.90
13529;DHT22;4419;50.882;4.718;2022-08-21T08:44:09;20.40;99.90
13529;DHT22;4419;50.882;4.718;2022-08-21T08:46:44;20.50;99.90
13529;DHT22;4419;50.882;4.718;2022-08-21T08:49:13;20.50;99.90
13529;DHT22;4419;50.882;4.718;2022-08-21T08:51:48;20.60;99.90
13529;DHT22;4419;50.882;4.718;2022-08-21T08:57:02;20.80;99.90
13529;DHT22;4419;50.882;4.718;2022-08-21T08:59:42;20.90;99.90
13529;DHT22;4419;50.882;4.718;2022-08-21T09:02:09;20.90;97.20
13529;DHT22;4419;50.882;4.718;2022-08-21T09:04:36;20.90;95.40
13529;DHT22;4419;50.882;4.718;2022-08-21T09:09:43;21.20;96.30
13529;DHT22;4419;50.882;4.718;2022-08-21T09:12:28;21.30;90.90
13529;DHT22;4419;50.882;4.718;2022-08-21T09:15:06;21.30;92.40
13529;DHT22;4419;50.882;4.718;2022-08-21T09:25:32;21.90;80.50
13529;DHT22;4419;50.882;4.718;2022-08-21T09:27:58;21.80;79.10
13529;DHT22;4419;50.882;4.718;2022-08-21T09:30:27;21.90;77.30
13529;DHT22;4419;50.882;4.718;2022-08-21T09:32:53;22.00;74.10
13529;DHT22;4419;50.882;4.718;2022-08-21T09:35:20;22.10;70.10
13529;DHT22;4419;50.882;4.718;2022-08-21T09:40:17;22.00;69.30
13529;DHT22;4419;50.882;4.718;2022-08-21T09:42:53;22.00;68.70
13529;DHT22;4419;50.882;4.718;2022-08-21T09:45:18;22.10;68.70
13529;DHT22;4419;50.882;4.718;2022-08-21T09:47:44;22.40;64.40
13529;DHT22;4419;50.882;4.718;2022-08-21T09:50:19;22.40;62.00
13529;DHT22;4419;50.882;4.718;2022-08-21T09:52:47;22.60;64.50
13529;DHT22;4419;50.882;4.718;2022-08-21T09:55:19;22.70;59.40
13529;DHT22;4419;50.882;4.718;2022-08-21T09:58:05;23.20;57.30
13529;DHT22;4419;50.882;4.718;2022-08-21T10:00:32;23.60;54.40
13529;DHT22;4419;50.882;4.718;2022-08-21T10:03:12;23.70;51.90
13529;DHT22;4419;50.882;4.718;2022-08-21T10:05:39;23.70;51.40
13529;DHT22;4419;50.882;4.718;2022-08-21T10:08:05;23.40;51.90
13529;DHT22;4419;50.882;4.718;2022-08-21T10:10:41;23.50;53.00
13529;DHT22;4419;50.882;4.718;2022-08-21T10:13:14;23.30;53.90
13529;DHT22;4419;50.882;4.718;2022-08-21T10:15:56;22.90;53.80
13529;DHT22;4419;50.882;4.718;2022-08-21T10:21:02;22.90;56.20
13529;DHT22;4419;50.882;4.718;2022-08-21T10:34:29;22.50;55.60
13529;DHT22;4419;50.882;4.718;2022-08-21T10:39:59;22.80;58.00
13529;DHT22;4419;50.882;4.718;2022-08-21T10:47:21;23.70;52.30
13529;DHT22;4419;50.882;4.718;2022-08-21T10:52:30;23.90;50.00
13529;DHT22;4419;50.882;4.718;2022-08-21T10:55:06;24.20;48.00
13529;DHT22;4419;50.882;4.718;2022-08-21T10:57:43;24.20;47.70
13529;DHT22;4419;50.882;4.718;2022-08-21T11:00:12;24.00;47.50
13529;DHT22;4419;50.882;4.718;2022-08-21T11:05:12;23.60;48.80
13529;DHT22;4419;50.882;4.718;2022-08-21T11:07:50;23.40;49.70
13529;DHT22;4419;50.882;4.718;2022-08-21T11:10:27;23.10;49.50
13529;DHT22;4419;50.882;4.718;2022-08-21T11:12:56;23.20;50.50
13529;DHT22;4419;50.882;4.718;2022-08-21T11:23:22;24.40;47.80
13529;DHT22;4419;50.882;4.718;2022-08-21T11:25:51;24.60;46.90
13529;DHT22;4419;50.882;4.718;2022-08-21T11:28:31;24.30;45.70
13529;DHT22;4419;50.882;4.718;2022-08-21T11:36:11;24.00;47.00
13529;DHT22;4419;50.882;4.718;2022-08-21T11:38:42;23.90;47.20
13529;DHT22;4419;50.882;4.718;2022-08-21T11:41:29;23.70;46.90
13529;DHT22;4419;50.882;4.718;2022-08-21T11:51:36;24.00;47.70
13529;DHT22;4419;50.882;4.718;2022-08-21T11:56:51;24.20;46.20
13529;DHT22;4419;50.882;4.718;2022-08-21T11:59:23;24.50;48.40
13529;DHT22;4419;50.882;4.718;2022-08-21T12:01:50;24.60;45.30
13529;DHT22;4419;50.882;4.718;2022-08-21T12:04:18;24.60;43.80
13529;DHT22;4419;50.882;4.718;2022-08-21T12:06:45;24.60;42.80
13529;DHT22;4419;50.882;4.718;2022-08-21T12:12:00;24.50;43.00
13529;DHT22;4419;50.882;4.718;2022-08-21T12:14:34;24.60;42.10
13529;DHT22;4419;50.882;4.718;2022-08-21T12:17:03;24.70;42.40
13529;DHT22;4419;50.882;4.718;2022-08-21T12:19:30;25.10;42.20
13529;DHT22;4419;50.882;4.718;2022-08-21T12:22:07;25.40;42.10
13529;DHT22;4419;50.882;4.718;2022-08-21T12:24:42;25.50;39.80
13529;DHT22;4419;50.882;4.718;2022-08-21T12:29:47;25.20;39.20
13529;DHT22;4419;50.882;4.718;2022-08-21T12:34:44;25.60;40.00
13529;DHT22;4419;50.882;4.718;2022-08-21T12:39:46;26.10;39.00
13529;DHT22;4419;50.882;4.718;2022-08-21T12:42:23;26.20;37.40
13529;DHT22;4419;50.882;4.718;2022-08-21T12:44:50;26.30;37.90
13529;DHT22;4419;50.882;4.718;2022-08-21T12:47:37;26.40;37.10
13529;DHT22;4419;50.882;4.718;2022-08-21T12:50:10;26.50;36.90
13529;DHT22;4419;50.882;4.718;2022-08-21T12:52:40;26.00;36.60
13529;DHT22;4419;50.882;4.718;2022-08-21T12:55:07;25.80;36.40
13529;DHT22;4419;50.882;4.718;2022-08-21T12:57:36;25.10;36.70
13529;DHT22;4419;50.882;4.718;2022-08-21T13:00:05;25.00;35.00
13529;DHT22;4419;50.882;4.718;2022-08-21T13:02:35;25.50;35.60
13529;DHT22;4419;50.882;4.718;2022-08-21T13:05:05;25.80;35.90
13529;DHT22;4419;50.882;4.718;2022-08-21T13:07:32;25.90;34.10
13529;DHT22;4419;50.882;4.718;2022-08-21T13:10:00;26.20;35.20
13529;DHT22;4419;50.882;4.718;2022-08-21T13:12:27;26.50;35.80
13529;DHT22;4419;50.882;4.718;2022-08-21T13:14:55;26.50;35.50
13529;DHT22;4419;50.882;4.718;2022-08-21T13:17:22;26.50;35.40
13529;DHT22;4419;50.882;4.718;2022-08-21T13:19:53;26.20;37.00
13529;DHT22;4419;50.882;4.718;2022-08-21T13:22:19;25.90;35.80
13529;DHT22;4419;50.882;4.718;2022-08-21T13:24:46;25.20;35.80
13529;DHT22;4419;50.882;4.718;2022-08-21T13:27:19;24.90;36.20
13529;DHT22;4419;50.882;4.718;2022-08-21T13:29:45;24.90;36.80
13529;DHT22;4419;50.882;4.718;2022-08-21T13:32:17;24.80;37.10
13529;DHT22;4419;50.882;4.718;2022-08-21T13:34:43;24.80;37.40
13529;DHT22;4419;50.882;4.718;2022-08-21T13:37:09;24.70;37.60
13529;DHT22;4419;50.882;4.718;2022-08-21T13:39:36;24.80;37.80
13529;DHT22;4419;50.882;4.718;2022-08-21T13:42:04;25.00;38.60
13529;DHT22;4419;50.882;4.718;2022-08-21T13:44:35;25.40;37.00
13529;DHT22;4419;50.882;4.718;2022-08-21T13:47:02;25.60;37.40
13529;DHT22;4419;50.882;4.718;2022-08-21T13:49:30;25.60;34.60
13529;DHT22;4419;50.882;4.718;2022-08-21T13:51:56;25.90;35.80
13529;DHT22;4419;50.882;4.718;2022-08-21T13:54:27;25.90;36.00
13529;DHT22;4419;50.882;4.718;2022-08-21T13:56:54;25.90;35.00
13529;DHT22;4419;50.882;4.718;2022-08-21T13:59:27;25.50;34.80
13529;DHT22;4419;50.882;4.718;2022-08-21T14:02:15;25.40;35.00
13529;DHT22;4419;50.882;4.718;2022-08-21T14:04:42;25.30;35.90
13529;DHT22;4419;50.882;4.718;2022-08-21T14:07:21;25.00;36.70
13529;DHT22;4419;50.882;4.718;2022-08-21T14:09:49;25.00;36.10
13529;DHT22;4419;50.882;4.718;2022-08-21T14:13:26;25.00;36.30
13529;DHT22;4419;50.882;4.718;2022-08-21T14:15:12;24.80;36.40
13529;DHT22;4419;50.882;4.718;2022-08-21T14:17:39;24.80;37.70
13529;DHT22;4419;50.882;4.718;2022-08-21T14:20:08;24.80;35.90
13529;DHT22;4419;50.882;4.718;2022-08-21T14:22:44;24.80;36.60
13529;DHT22;4419;50.882;4.718;2022-08-21T14:25:12;24.80;37.30
13529;DHT22;4419;50.882;4.718;2022-08-21T14:27:49;24.90;38.20
13529;DHT22;4419;50.882;4.718;2022-08-21T14:30:20;24.90;37.90
13529;DHT22;4419;50.882;4.718;2022-08-21T14:32:46;24.90;37.30
13529;DHT22;4419;50.882;4.718;2022-08-21T14:35:12;24.90;37.40
13529;DHT22;4419;50.882;4.718;2022-08-21T14:37:41;24.80;38.30
13529;DHT22;4419;50.882;4.718;2022-08-21T14:40:07;24.60;38.10
13529;DHT22;4419;50.882;4.718;2022-08-21T14:42:34;24.70;38.50
13529;DHT22;4419;50.882;4.718;2022-08-21T14:45:06;24.90;37.80
13529;DHT22;4419;50.882;4.718;2022-08-21T14:47:32;24.90;37.70
13529;DHT22;4419;50.882;4.718;2022-08-21T14:49:58;24.90;37.90
13529;DHT22;4419;50.882;4.718;2022-08-21T14:52:24;24.80;38.20
13529;DHT22;4419;50.882;4.718;2022-08-21T14:54:49;24.80;37.60
13529;DHT22;4419;50.882;4.718;2022-08-21T14:57:15;24.80;37.80
13529;DHT22;4419;50.882;4.718;2022-08-21T14:59:41;24.90;37.20
13529;DHT22;4419;50.882;4.718;2022-08-21T15:02:07;24.80;37.50
13529;DHT22;4419;50.882;4.718;2022-08-21T15:04:33;24.70;37.50
13529;DHT22;4419;50.882;4.718;2022-08-21T15:06:59;24.70;37.90
13529;DHT22;4419;50.882;4.718;2022-08-21T15:09:24;24.60;37.80
13529;DHT22;4419;50.882;4.718;2022-08-21T15:11:51;24.60;37.80
13529;DHT22;4419;50.882;4.718;2022-08-21T15:14:18;24.60;37.20
13529;DHT22;4419;50.882;4.718;2022-08-21T15:16:45;24.60;37.60
13529;DHT22;4419;50.882;4.718;2022-08-21T15:19:10;24.60;37.60
13529;DHT22;4419;50.882;4.718;2022-08-21T15:21:36;24.60;38.50
13529;DHT22;4419;50.882;4.718;2022-08-21T15:24:02;24.60;37.80
13529;DHT22;4419;50.882;4.718;2022-08-21T15:26:27;24.70;37.50
13529;DHT22;4419;50.882;4.718;2022-08-21T15:28:53;24.70;37.90
13529;DHT22;4419;50.882;4.718;2022-08-21T15:31:19;24.60;37.60
13529;DHT22;4419;50.882;4.718;2022-08-21T15:33:44;24.70;37.40
13529;DHT22;4419;50.882;4.718;2022-08-21T15:36:10;24.70;38.00
13529;DHT22;4419;50.882;4.718;2022-08-21T15:38:35;24.60;37.80
13529;DHT22;4419;50.882;4.718;2022-08-21T15:41:02;24.60;37.30
13529;DHT22;4419;50.882;4.718;2022-08-21T15:43:29;24.60;37.70
13529;DHT22;4419;50.882;4.718;2022-08-21T15:45:55;24.50;38.80
13529;DHT22;4419;50.882;4.718;2022-08-21T15:48:21;24.50;38.90
13529;DHT22;4419;50.882;4.718;2022-08-21T15:50:46;24.50;38.60
13529;DHT22;4419;50.882;4.718;2022-08-21T15:53:12;24.40;38.40
13529;DHT22;4419;50.882;4.718;2022-08-21T15:55:38;24.40;38.30
13529;DHT22;4419;50.882;4.718;2022-08-21T15:58:04;24.40;38.20
13529;DHT22;4419;50.882;4.718;2022-08-21T16:00:31;24.40;38.50
13529;DHT22;4419;50.882;4.718;2022-08-21T16:02:58;24.40;38.50
13529;DHT22;4419;50.882;4.718;2022-08-21T16:05:24;24.40;38.90
13529;DHT22;4419;50.882;4.718;2022-08-21T16:07:50;24.40;39.20
13529;DHT22;4419;50.882;4.718;2022-08-21T16:10:17;24.40;38.10
13529;DHT22;4419;50.882;4.718;2022-08-21T16:12:44;24.40;38.90
13529;DHT22;4419;50.882;4.718;2022-08-21T16:15:12;24.40;40.30
13529;DHT22;4419;50.882;4.718;2022-08-21T16:17:38;24.40;40.00
13529;DHT22;4419;50.882;4.718;2022-08-21T16:20:07;24.30;40.20
13529;DHT22;4419;50.882;4.718;2022-08-21T16:22:33;24.30;40.40
13529;DHT22;4419;50.882;4.718;2022-08-21T16:24:58;24.20;40.70
13529;DHT22;4419;50.882;4.718;2022-08-21T16:27:24;24.20;40.50
13529;DHT22;4419;50.882;4.718;2022-08-21T16:29:50;24.20;40.50
13529;DHT22;4419;50.882;4.718;2022-08-21T16:32:16;24.20;41.10
13529;DHT22;4419;50.882;4.718;2022-08-21T16:34:42;24.20;40.40
13529;DHT22;4419;50.882;4.718;2022-08-21T16:37:09;24.10;40.50
13529;DHT22;4419;50.882;4.718;2022-08-21T16:39:34;24.10;40.90
13529;DHT22;4419;50.882;4.718;2022-08-21T16:42:01;24.00;41.10
13529;DHT22;4419;50.882;4.718;2022-08-21T16:44:27;24.00;41.30
13529;DHT22;4419;50.882;4.718;2022-08-21T16:46:53;24.00;42.30
13529;DHT22;4419;50.882;4.718;2022-08-21T16:49:18;24.00;41.20
13529;DHT22;4419;50.882;4.718;2022-08-21T16:51:44;24.00;40.80
13529;DHT22;4419;50.882;4.718;2022-08-21T16:54:10;24.00;40.70
13529;DHT22;4419;50.882;4.718;2022-08-21T16:56:36;24.00;40.60
13529;DHT22;4419;50.882;4.718;2022-08-21T16:59:02;24.00;40.40
13529;DHT22;4419;50.882;4.718;2022-08-21T17:01:30;24.00;41.30
13529;DHT22;4419;50.882;4.718;2022-08-21T17:03:56;23.90;41.30